Time;durP1;ratioP1;P1;durP2;ratioP2;P2;SDS_P1;SDS_P2;PMS_P1;PMS_P2;Temp;Humidity;BMP_temperature;BMP_pressure;BME280_temperature;BME280_humidity;BME280_pressure;Samples;Min_cycle;Max_cycle;Signal;HPM_P1;HPM_P2
2021/06/30 00:00:36;;;;;;;8.56;5.44;;;;;;;;;;361324;146;865372;-64
2021/06/30 00:01:37;;;;;;;11.26;5.58;;;;;;;;;;362107;145;860120;-64
2021/06/30 00:02:39;;;;;;;9.36;5.70;;;;;;;;;;360993;144;857361;-64
2021/06/30 00:03:41;;;;;;;10.88;4.81;;;;;;;;;;364558;146;857284;-64
2021/06/30 00:04:42;;;;;;;9.01;5.05;;;;;;;;;;363148;145;857369;-64
2021/06/30 00:05:44;;;;;;;5.73;4.86;;;;;;;;;;365006;145;857301;-64
2021/06/30 00:06:47;;;;;;;8.83;4.34;;;;;;;;;;364104;147;859099;-64
2021/06/30 00:07:49;;;;;;;8.83;5.08;;;;;;;;;;365090;145;857629;-64
2021/06/30 00:08:53;;;;;;;7.03;4.37;;;;;;;;;;362422;147;859490;-64
2021/06/30 00:09:54;;;;;;;8.24;4.47;;;;;;;;;;364864;147;865212;-65
2021/06/30 00:10:55;;;;;;;5.61;3.66;;;;;;;;;;362147;145;857463;-65
2021/06/30 00:11:57;;;;;;;5.50;4.07;;;;;;;;;;359365;147;864923;-64
2021/06/30 00:12:59;;;;;;;17.44;4.04;;;;;;;;;;359272;150;865117;-65
2021/06/30 00:14:00;;;;;;;4.68;3.69;;;;;;;;;;361648;146;857632;-65
2021/06/30 00:15:06;;;;;;;4.58;4.18;;;;;;;;;;363450;145;867303;-64
2021/06/30 00:16:08;;;;;;;6.00;4.17;;;;;;;;;;359266;147;857828;-64
2021/06/30 00:17:10;;;;;;;12.70;4.43;;;;;;;;;;360003;146;860294;-65
2021/06/30 00:18:11;;;;;;;5.42;4.09;;;;;;;;;;364412;145;857471;-65
2021/06/30 00:19:13;;;;;;;5.36;3.84;;;;;;;;;;364968;145;857432;-65
2021/06/30 00:20:15;;;;;;;6.64;3.36;;;;;;;;;;364952;145;865814;-64
2021/06/30 00:21:16;;;;;;;7.84;4.06;;;;;;;;;;362704;145;858824;-64
2021/06/30 00:22:19;;;;;;;3.84;3.44;;;;;;;;;;359794;145;857357;-64
2021/06/30 00:23:20;;;;;;;4.53;3.29;;;;;;;;;;362947;145;857275;-64
2021/06/30 00:24:22;;;;;;;6.01;3.73;;;;;;;;;;361914;146;857479;-64
2021/06/30 00:25:24;;;;;;;5.78;3.71;;;;;;;;;;359207;149;864938;-64
2021/06/30 00:26:26;;;;;;;6.93;4.14;;;;;;;;;;356012;148;858347;-64
2021/06/30 00:27:27;;;;;;;11.74;4.39;;;;;;;;;;360782;147;858591;-64
2021/06/30 00:28:30;;;;;;;6.26;3.79;;;;;;;;;;358388;147;857328;-64
2021/06/30 00:29:31;;;;;;;5.77;3.95;;;;;;;;;;360816;145;857353;-64
2021/06/30 00:30:33;;;;;;;7.23;4.57;;;;;;;;;;361073;147;859130;-64
2021/06/30 00:31:35;;;;;;;13.31;4.87;;;;;;;;;;363143;148;858368;-64
2021/06/30 00:32:37;;;;;;;10.32;4.61;;;;;;;;;;362171;147;858995;-64
2021/06/30 00:33:38;;;;;;;7.07;4.66;;;;;;;;;;362885;147;856633;-64
2021/06/30 00:34:40;;;;;;;9.44;4.50;;;;;;;;;;365567;147;857480;-64
2021/06/30 00:35:41;;;;;;;9.51;4.99;;;;;;;;;;359982;147;865816;-64
2021/06/30 00:36:44;;;;;;;4.80;4.26;;;;;;;;;;361477;147;859009;-64
2021/06/30 00:37:46;;;;;;;9.57;4.86;;;;;;;;;;361495;147;865819;-64
2021/06/30 00:38:47;;;;;;;7.28;4.56;;;;;;;;;;356705;149;857401;-64
2021/06/30 00:39:49;;;;;;;5.15;3.96;;;;;;;;;;347129;151;865852;-64
2021/06/30 00:40:51;;;;;;;4.09;3.56;;;;;;;;;;349723;151;859442;-64
2021/06/30 00:41:56;;;;;;;5.95;3.61;;;;;;;;;;349528;154;864747;-63
2021/06/30 00:42:56;;;;;;;8.81;3.79;;;;;;;;;;348807;153;857290;-66
2021/06/30 00:43:57;;;;;;;6.80;3.66;;;;;;;;;;353012;150;859322;-66
2021/06/30 00:44:59;;;;;;;5.58;4.39;;;;;;;;;;344006;156;857476;-64
2021/06/30 00:46:01;;;;;;;4.45;4.03;;;;;;;;;;351275;150;864970;-64
2021/06/30 00:47:03;;;;;;;5.73;4.49;;;;;;;;;;353452;149;857195;-64
2021/06/30 00:48:05;;;;;;;15.37;4.47;;;;;;;;;;342737;157;857693;-64
2021/06/30 00:49:07;;;;;;;5.36;3.45;;;;;;;;;;346383;152;859917;-64
2021/06/30 00:50:10;;;;;;;4.39;3.44;;;;;;;;;;347248;153;858104;-64
2021/06/30 00:51:12;;;;;;;4.27;3.87;;;;;;;;;;341794;157;864875;-64
2021/06/30 00:52:13;;;;;;;9.04;3.94;;;;;;;;;;357436;147;857285;-64
2021/06/30 00:53:15;;;;;;;4.21;3.81;;;;;;;;;;361603;147;857444;-64
2021/06/30 00:54:17;;;;;;;3.67;3.30;;;;;;;;;;356735;151;857403;-64
2021/06/30 00:55:19;;;;;;;5.99;4.18;;;;;;;;;;357187;147;857983;-64
2021/06/30 00:56:24;;;;;;;5.35;3.92;;;;;;;;;;362237;147;860774;-64
2021/06/30 00:57:26;;;;;;;4.39;3.51;;;;;;;;;;356497;151;866846;-64
2021/06/30 00:58:28;;;;;;;7.34;3.41;;;;;;;;;;356711;151;857796;-64
2021/06/30 00:59:29;;;;;;;7.44;3.74;;;;;;;;;;360759;146;865770;-64
2021/06/30 01:00:31;;;;;;;4.64;3.76;;;;;;;;;;365109;147;865060;-64
2021/06/30 01:01:33;;;;;;;6.17;3.90;;;;;;;;;;363070;148;864930;-64
2021/06/30 01:02:34;;;;;;;4.52;4.13;;;;;;;;;;362406;147;865608;-64
2021/06/30 01:03:36;;;;;;;9.13;5.09;;;;;;;;;;361668;147;859644;-64
2021/06/30 01:04:38;;;;;;;14.84;4.76;;;;;;;;;;356682;151;858567;-64
2021/06/30 01:05:39;;;;;;;4.86;4.18;;;;;;;;;;359204;147;865094;-64
2021/06/30 01:06:41;;;;;;;20.39;6.28;;;;;;;;;;362380;147;857359;-64
2021/06/30 01:07:43;;;;;;;6.22;4.69;;;;;;;;;;359765;147;865948;-64
2021/06/30 01:08:45;;;;;;;5.40;4.61;;;;;;;;;;362448;147;858928;-64
2021/06/30 01:09:46;;;;;;;8.03;5.27;;;;;;;;;;361673;145;858443;-64
2021/06/30 01:10:48;;;;;;;7.11;5.72;;;;;;;;;;358633;148;865115;-64
2021/06/30 01:11:50;;;;;;;10.11;6.16;;;;;;;;;;359091;148;865036;-64
2021/06/30 01:12:52;;;;;;;6.97;5.09;;;;;;;;;;360327;147;857434;-64
2021/06/30 01:13:53;;;;;;;8.45;5.38;;;;;;;;;;365481;147;857255;-64
2021/06/30 01:14:55;;;;;;;7.26;5.45;;;;;;;;;;364645;147;857295;-64
2021/06/30 01:15:57;;;;;;;11.18;6.22;;;;;;;;;;361804;147;857403;-64
2021/06/30 01:16:59;;;;;;;7.20;4.94;;;;;;;;;;361512;148;865897;-64
2021/06/30 01:18:01;;;;;;;8.55;4.97;;;;;;;;;;351579;151;857293;-64
2021/06/30 01:19:02;;;;;;;7.50;5.22;;;;;;;;;;348502;151;857421;-64
2021/06/30 01:20:05;;;;;;;7.33;4.73;;;;;;;;;;351140;151;857281;-64
2021/06/30 01:21:07;;;;;;;7.27;4.62;;;;;;;;;;352470;151;857306;-64
2021/06/30 01:22:09;;;;;;;9.10;5.21;;;;;;;;;;345288;152;857862;-64
2021/06/30 01:23:10;;;;;;;6.36;4.80;;;;;;;;;;349591;151;857291;-64
2021/06/30 01:24:12;;;;;;;6.90;5.32;;;;;;;;;;349446;154;857793;-65
2021/06/30 01:25:13;;;;;;;10.16;4.44;;;;;;;;;;352500;150;865835;-64
2021/06/30 01:26:17;;;;;;;6.12;4.57;;;;;;;;;;351254;149;860577;-64
2021/06/30 01:27:19;;;;;;;6.08;4.41;;;;;;;;;;348790;154;859184;-64
2021/06/30 01:28:21;;;;;;;6.39;4.48;;;;;;;;;;346265;153;858634;-64
2021/06/30 01:29:22;;;;;;;8.54;4.18;;;;;;;;;;354119;149;858807;-64
2021/06/30 01:30:25;;;;;;;6.21;3.96;;;;;;;;;;354596;150;857297;-64
2021/06/30 01:31:27;;;;;;;5.79;3.84;;;;;;;;;;354529;150;864838;-64
2021/06/30 01:32:28;;;;;;;11.33;4.18;;;;;;;;;;354623;149;865019;-64
2021/06/30 01:33:30;;;;;;;11.23;4.44;;;;;;;;;;354001;152;857321;-64
2021/06/30 01:34:31;;;;;;;4.33;3.79;;;;;;;;;;353378;151;857628;-64
2021/06/30 01:35:33;;;;;;;5.93;4.09;;;;;;;;;;353926;149;859172;-64
2021/06/30 01:36:44;;;;;;;7.61;4.29;;;;;;;;;;354060;151;859196;-65
2021/06/30 01:37:46;;;;;;;7.54;4.78;;;;;;;;;;350629;149;857742;-64
2021/06/30 01:38:48;;;;;;;9.29;4.55;;;;;;;;;;347227;152;858933;-63
2021/06/30 01:39:50;;;;;;;5.46;4.66;;;;;;;;;;353867;150;857177;-64
2021/06/30 01:40:52;;;;;;;8.56;4.69;;;;;;;;;;354690;151;857451;-63
2021/06/30 01:41:53;;;;;;;5.78;4.41;;;;;;;;;;352695;149;865870;-67
2021/06/30 01:42:57;;;;;;;10.99;4.52;;;;;;;;;;343838;155;859150;-66
2021/06/30 01:43:58;;;;;;;9.66;4.29;;;;;;;;;;353583;149;860601;-66
2021/06/30 01:45:00;;;;;;;5.69;4.70;;;;;;;;;;354766;149;858318;-64
2021/06/30 01:46:02;;;;;;;5.78;4.85;;;;;;;;;;358242;150;857851;-64
2021/06/30 01:47:03;;;;;;;7.74;4.54;;;;;;;;;;354307;151;864815;-64
2021/06/30 01:48:05;;;;;;;5.73;4.41;;;;;;;;;;353392;149;861785;-64
2021/06/30 01:49:07;;;;;;;8.09;5.41;;;;;;;;;;353771;151;866625;-64
2021/06/30 01:50:09;;;;;;;5.45;4.44;;;;;;;;;;354304;152;857398;-64
2021/06/30 01:51:11;;;;;;;7.25;4.67;;;;;;;;;;353667;151;857242;-64
2021/06/30 01:52:16;;;;;;;7.00;4.06;;;;;;;;;;353587;150;859482;-66
2021/06/30 01:53:18;;;;;;;7.69;4.41;;;;;;;;;;352835;152;858993;-66
2021/06/30 01:54:19;;;;;;;7.56;4.43;;;;;;;;;;353141;150;857371;-66
2021/06/30 01:55:21;;;;;;;5.22;4.72;;;;;;;;;;354242;151;865706;-64
2021/06/30 01:56:24;;;;;;;5.40;4.24;;;;;;;;;;350932;150;857270;-64
2021/06/30 01:57:25;;;;;;;6.15;4.31;;;;;;;;;;353736;150;864920;-64
2021/06/30 01:58:27;;;;;;;7.96;4.04;;;;;;;;;;354339;150;857269;-64
2021/06/30 01:59:29;;;;;;;5.24;4.20;;;;;;;;;;354244;152;857338;-64
2021/06/30 02:00:31;;;;;;;7.22;4.81;;;;;;;;;;353656;151;857465;-64
2021/06/30 02:01:34;;;;;;;8.34;4.61;;;;;;;;;;349514;151;859112;-64
2021/06/30 02:02:36;;;;;;;7.57;4.31;;;;;;;;;;349477;153;859896;-64
2021/06/30 02:03:38;;;;;;;6.97;4.33;;;;;;;;;;348462;153;860208;-64
2021/06/30 02:04:41;;;;;;;4.98;4.38;;;;;;;;;;353372;151;858168;-64
2021/06/30 02:05:42;;;;;;;6.58;4.67;;;;;;;;;;351364;151;865431;-64
2021/06/30 02:06:44;;;;;;;6.55;5.04;;;;;;;;;;350199;151;864856;-64
2021/06/30 02:07:47;;;;;;;5.83;4.55;;;;;;;;;;350837;151;857345;-64
2021/06/30 02:08:49;;;;;;;5.73;5.10;;;;;;;;;;354378;151;865774;-64
2021/06/30 02:09:50;;;;;;;6.41;5.03;;;;;;;;;;350085;151;858985;-65
2021/06/30 02:10:52;;;;;;;6.43;4.83;;;;;;;;;;351135;151;857405;-65
2021/06/30 02:11:54;;;;;;;6.54;4.84;;;;;;;;;;354038;151;857889;-65
2021/06/30 02:12:56;;;;;;;7.46;4.75;;;;;;;;;;350152;151;864919;-65
2021/06/30 02:13:57;;;;;;;8.11;4.61;;;;;;;;;;349728;151;866714;-65
2021/06/30 02:14:59;;;;;;;6.02;4.82;;;;;;;;;;348801;151;857297;-65
2021/06/30 02:16:01;;;;;;;7.62;5.21;;;;;;;;;;346219;151;859054;-65
2021/06/30 02:17:02;;;;;;;7.41;5.28;;;;;;;;;;350264;151;858867;-65
2021/06/30 02:18:04;;;;;;;5.84;5.16;;;;;;;;;;350899;151;858906;-64
2021/06/30 02:19:06;;;;;;;5.83;4.89;;;;;;;;;;351092;153;868577;-65
2021/06/30 02:20:09;;;;;;;5.99;4.61;;;;;;;;;;350321;152;861254;-65
2021/06/30 02:21:11;;;;;;;6.09;4.57;;;;;;;;;;352670;151;857179;-64
2021/06/30 02:22:13;;;;;;;7.71;4.32;;;;;;;;;;346641;152;857237;-64
2021/06/30 02:23:14;;;;;;;8.40;4.85;;;;;;;;;;348273;153;859016;-65
2021/06/30 02:24:16;;;;;;;7.48;4.44;;;;;;;;;;349583;151;865122;-65
2021/06/30 02:25:19;;;;;;;5.28;4.49;;;;;;;;;;350324;152;859329;-65
2021/06/30 02:26:23;;;;;;;7.59;4.60;;;;;;;;;;347343;151;859700;-64
2021/06/30 02:27:25;;;;;;;5.49;4.97;;;;;;;;;;346994;151;858205;-64
2021/06/30 02:28:28;;;;;;;6.48;4.45;;;;;;;;;;353498;151;864965;-64
2021/06/30 02:29:30;;;;;;;7.81;5.34;;;;;;;;;;347672;151;857518;-64
2021/06/30 02:30:33;;;;;;;5.52;4.08;;;;;;;;;;345654;151;857419;-65
2021/06/30 02:31:35;;;;;;;5.33;4.44;;;;;;;;;;349113;152;857423;-65
2021/06/30 02:32:37;;;;;;;7.64;4.84;;;;;;;;;;346203;152;864896;-65
2021/06/30 02:33:38;;;;;;;6.59;4.94;;;;;;;;;;346728;151;856432;-65
2021/06/30 02:34:40;;;;;;;5.11;4.64;;;;;;;;;;345665;151;859248;-65
2021/06/30 02:35:42;;;;;;;7.99;5.56;;;;;;;;;;344504;151;859389;-65
2021/06/30 02:36:43;;;;;;;6.97;5.69;;;;;;;;;;347228;151;859251;-65
2021/06/30 02:37:46;;;;;;;5.90;5.30;;;;;;;;;;347356;152;865969;-65
2021/06/30 02:38:48;;;;;;;5.83;5.01;;;;;;;;;;348263;152;861644;-65
2021/06/30 02:39:49;;;;;;;7.62;4.90;;;;;;;;;;345297;151;860144;-65
2021/06/30 02:40:51;;;;;;;11.11;4.56;;;;;;;;;;347364;152;857259;-65
2021/06/30 02:41:53;;;;;;;9.10;5.40;;;;;;;;;;345569;154;857405;-65
2021/06/30 02:42:54;;;;;;;5.64;4.55;;;;;;;;;;345983;152;857289;-65
2021/06/30 02:43:56;;;;;;;12.23;4.43;;;;;;;;;;346464;151;866207;-65
2021/06/30 02:44:58;;;;;;;7.48;4.61;;;;;;;;;;347383;154;866057;-65
2021/06/30 02:45:59;;;;;;;6.42;4.14;;;;;;;;;;346542;152;859297;-65
2021/06/30 02:47:01;;;;;;;9.19;4.15;;;;;;;;;;346427;152;857964;-65
2021/06/30 02:48:02;;;;;;;9.35;4.40;;;;;;;;;;346914;153;864920;-63
2021/06/30 02:49:05;;;;;;;4.41;3.83;;;;;;;;;;344883;151;857929;-64
2021/06/30 02:50:08;;;;;;;4.73;4.25;;;;;;;;;;346397;151;865742;-64
2021/06/30 02:51:10;;;;;;;13.86;4.29;;;;;;;;;;346446;154;857212;-64
2021/06/30 02:52:12;;;;;;;7.69;4.20;;;;;;;;;;348390;152;867481;-64
2021/06/30 02:53:13;;;;;;;8.72;4.47;;;;;;;;;;344955;151;857168;-63
2021/06/30 02:54:15;;;;;;;8.04;4.35;;;;;;;;;;345656;151;857307;-64
2021/06/30 02:55:17;;;;;;;7.06;4.31;;;;;;;;;;344948;151;857725;-64
2021/06/30 02:56:21;;;;;;;7.01;4.37;;;;;;;;;;345371;151;859573;-65
2021/06/30 02:57:23;;;;;;;11.91;4.53;;;;;;;;;;344565;151;857360;-63
2021/06/30 02:58:24;;;;;;;7.22;4.73;;;;;;;;;;344753;155;865939;-64
2021/06/30 02:59:26;;;;;;;5.77;4.28;;;;;;;;;;347126;152;859397;-64
2021/06/30 03:00:29;;;;;;;9.65;4.17;;;;;;;;;;348853;151;864826;-64
2021/06/30 03:01:31;;;;;;;7.40;4.38;;;;;;;;;;347362;153;857355;-64
2021/06/30 03:02:32;;;;;;;8.09;4.10;;;;;;;;;;347419;151;857491;-64
2021/06/30 03:03:34;;;;;;;8.82;4.44;;;;;;;;;;345964;152;866679;-64
2021/06/30 03:04:36;;;;;;;7.39;4.26;;;;;;;;;;346050;154;858805;-64
2021/06/30 03:05:37;;;;;;;4.41;3.81;;;;;;;;;;345922;151;858817;-64
2021/06/30 03:06:40;;;;;;;5.65;4.17;;;;;;;;;;346063;152;857631;-65
2021/06/30 03:07:42;;;;;;;7.52;4.44;;;;;;;;;;349717;151;856392;-65
2021/06/30 03:08:43;;;;;;;9.09;4.50;;;;;;;;;;344574;155;858453;-65
2021/06/30 03:09:45;;;;;;;4.91;4.36;;;;;;;;;;348385;152;857237;-65
2021/06/30 03:10:46;;;;;;;9.17;4.29;;;;;;;;;;348770;151;857270;-65
2021/06/30 03:11:49;;;;;;;8.64;4.32;;;;;;;;;;346834;151;866634;-65
2021/06/30 03:12:51;;;;;;;10.96;4.56;;;;;;;;;;346416;152;866241;-65
2021/06/30 03:13:53;;;;;;;8.51;4.16;;;;;;;;;;348616;151;857334;-65
2021/06/30 03:14:54;;;;;;;7.04;4.19;;;;;;;;;;346814;151;858231;-66
2021/06/30 03:15:56;;;;;;;8.66;4.21;;;;;;;;;;347824;152;859492;-64
2021/06/30 03:16:58;;;;;;;11.21;4.68;;;;;;;;;;346422;151;867409;-64
2021/06/30 03:17:59;;;;;;;4.26;3.86;;;;;;;;;;347304;154;863798;-64
2021/06/30 03:19:01;;;;;;;5.36;4.46;;;;;;;;;;346228;152;857259;-64
2021/06/30 03:20:04;;;;;;;7.14;4.69;;;;;;;;;;347085;152;857178;-64
2021/06/30 03:21:06;;;;;;;8.75;4.61;;;;;;;;;;347082;151;864995;-65
2021/06/30 03:22:08;;;;;;;6.89;4.53;;;;;;;;;;345709;154;857289;-64
2021/06/30 03:23:09;;;;;;;6.25;4.30;;;;;;;;;;346113;152;859707;-64
2021/06/30 03:24:11;;;;;;;6.94;4.29;;;;;;;;;;346285;153;857351;-64
2021/06/30 03:25:13;;;;;;;8.94;4.09;;;;;;;;;;343717;153;857272;-64
2021/06/30 03:26:15;;;;;;;7.40;4.05;;;;;;;;;;349281;151;857526;-64
2021/06/30 03:27:17;;;;;;;5.60;4.17;;;;;;;;;;349589;150;857797;-64
2021/06/30 03:28:18;;;;;;;7.74;4.53;;;;;;;;;;365764;145;864156;-64
2021/06/30 03:29:20;;;;;;;8.02;5.19;;;;;;;;;;362728;145;859728;-64
2021/06/30 03:30:22;;;;;;;6.47;4.87;;;;;;;;;;363916;140;864720;-65
2021/06/30 03:31:24;;;;;;;6.19;4.64;;;;;;;;;;369243;142;857074;-66
2021/06/30 03:32:25;;;;;;;5.28;4.66;;;;;;;;;;368205;143;857103;-67
2021/06/30 03:33:27;;;;;;;9.02;5.39;;;;;;;;;;367962;143;857271;-66
2021/06/30 03:34:28;;;;;;;9.80;4.97;;;;;;;;;;367965;145;858953;-69
2021/06/30 03:35:30;;;;;;;9.73;4.88;;;;;;;;;;367923;144;858984;-66
2021/06/30 03:36:32;;;;;;;8.54;5.21;;;;;;;;;;369355;145;857703;-66
2021/06/30 03:37:33;;;;;;;7.72;5.06;;;;;;;;;;369807;143;866336;-65
2021/06/30 03:38:35;;;;;;;6.91;4.68;;;;;;;;;;368066;145;859535;-65
2021/06/30 03:39:36;;;;;;;8.82;4.85;;;;;;;;;;366810;145;860368;-67
2021/06/30 03:40:38;;;;;;;10.21;5.37;;;;;;;;;;369829;143;859283;-64
2021/06/30 03:41:40;;;;;;;9.28;5.91;;;;;;;;;;373352;143;856789;-65
2021/06/30 03:42:41;;;;;;;7.24;5.23;;;;;;;;;;365795;142;858760;-66
2021/06/30 03:43:43;;;;;;;7.19;5.49;;;;;;;;;;370234;143;858075;-65
2021/06/30 03:44:44;;;;;;;10.03;6.37;;;;;;;;;;372041;143;857365;-66
2021/06/30 03:45:46;;;;;;;9.11;6.33;;;;;;;;;;370289;144;857117;-61
2021/06/30 03:46:49;;;;;;;8.44;6.25;;;;;;;;;;369263;143;857290;-63
2021/06/30 03:47:51;;;;;;;7.74;6.50;;;;;;;;;;369628;143;857169;-65
2021/06/30 03:48:52;;;;;;;7.74;5.99;;;;;;;;;;366528;143;859927;-65
2021/06/30 03:49:55;;;;;;;8.74;6.77;;;;;;;;;;371055;145;864928;-65
2021/06/30 03:50:56;;;;;;;8.22;6.61;;;;;;;;;;366403;143;857119;-65
2021/06/30 03:51:58;;;;;;;8.55;6.99;;;;;;;;;;365071;143;857217;-64
2021/06/30 03:53:00;;;;;;;9.26;7.16;;;;;;;;;;367166;145;857229;-63
2021/06/30 03:54:01;;;;;;;8.49;6.35;;;;;;;;;;368797;143;866725;-65
2021/06/30 03:55:03;;;;;;;8.65;6.89;;;;;;;;;;365771;143;858868;-66
2021/06/30 03:56:05;;;;;;;7.95;6.45;;;;;;;;;;369178;143;858874;-63
2021/06/30 03:57:07;;;;;;;7.79;6.89;;;;;;;;;;370465;143;858854;-65
2021/06/30 03:58:08;;;;;;;7.99;6.85;;;;;;;;;;369320;143;858438;-63
2021/06/30 03:59:10;;;;;;;9.59;6.95;;;;;;;;;;369981;144;857277;-64
2021/06/30 04:00:12;;;;;;;8.40;6.99;;;;;;;;;;369755;143;867142;-63
2021/06/30 04:01:14;;;;;;;8.40;7.39;;;;;;;;;;373489;143;857702;-63
2021/06/30 04:02:15;;;;;;;9.75;6.77;;;;;;;;;;371912;143;866188;-63
2021/06/30 04:03:19;;;;;;;8.59;6.81;;;;;;;;;;369339;144;858929;-64
2021/06/30 04:04:21;;;;;;;12.81;6.94;;;;;;;;;;367976;143;858676;-62
2021/06/30 04:05:23;;;;;;;9.99;6.89;;;;;;;;;;367866;143;857425;-65
2021/06/30 04:06:26;;;;;;;9.44;6.92;;;;;;;;;;371327;144;866478;-64
2021/06/30 04:07:28;;;;;;;9.08;6.46;;;;;;;;;;369142;143;857392;-64
2021/06/30 04:08:30;;;;;;;16.93;7.19;;;;;;;;;;366346;144;857294;-66
2021/06/30 04:09:31;;;;;;;11.17;6.46;;;;;;;;;;361163;145;866931;-64
2021/06/30 04:10:33;;;;;;;10.16;7.25;;;;;;;;;;369856;143;857314;-63
2021/06/30 04:11:35;;;;;;;7.75;6.78;;;;;;;;;;369549;145;860199;-64
2021/06/30 04:12:36;;;;;;;10.04;6.86;;;;;;;;;;371922;143;865254;-67
2021/06/30 04:13:38;;;;;;;9.71;6.79;;;;;;;;;;368129;142;865104;-61
2021/06/30 04:14:39;;;;;;;9.34;6.71;;;;;;;;;;369615;145;856428;-63
2021/06/30 04:15:42;;;;;;;7.29;6.47;;;;;;;;;;369829;145;859475;-64
2021/06/30 04:16:44;;;;;;;9.45;6.18;;;;;;;;;;369137;145;859388;-65
2021/06/30 04:17:46;;;;;;;9.81;6.52;;;;;;;;;;370129;145;859664;-65
2021/06/30 04:18:47;;;;;;;10.33;6.74;;;;;;;;;;368640;143;857225;-64
2021/06/30 04:19:49;;;;;;;10.01;6.33;;;;;;;;;;367992;143;857250;-63
2021/06/30 04:20:50;;;;;;;11.19;6.43;;;;;;;;;;370222;143;857339;-65
2021/06/30 04:21:54;;;;;;;10.95;6.01;;;;;;;;;;365271;144;865022;-64
2021/06/30 04:22:55;;;;;;;9.79;6.40;;;;;;;;;;366162;145;857338;-66
2021/06/30 04:23:57;;;;;;;9.79;6.27;;;;;;;;;;371316;143;859334;-64
2021/06/30 04:24:59;;;;;;;7.34;6.31;;;;;;;;;;365016;147;857246;-64
2021/06/30 04:26:01;;;;;;;7.87;6.34;;;;;;;;;;366518;143;857329;-61
2021/06/30 04:27:03;;;;;;;8.55;6.64;;;;;;;;;;369310;143;857775;-62
2021/06/30 04:28:05;;;;;;;8.76;6.40;;;;;;;;;;365487;143;858263;-64
2021/06/30 04:29:08;;;;;;;9.49;7.21;;;;;;;;;;368223;144;866472;-62
2021/06/30 04:30:11;;;;;;;14.08;7.18;;;;;;;;;;369730;143;857158;-63
2021/06/30 04:31:14;;;;;;;7.87;6.73;;;;;;;;;;368515;145;857227;-63
2021/06/30 04:32:15;;;;;;;7.15;6.23;;;;;;;;;;368411;142;859483;-63
2021/06/30 04:33:17;;;;;;;7.86;6.34;;;;;;;;;;369802;143;857288;-64
2021/06/30 04:34:18;;;;;;;6.53;5.83;;;;;;;;;;369160;144;857247;-64
2021/06/30 04:35:20;;;;;;;7.04;6.34;;;;;;;;;;368939;143;857189;-64
2021/06/30 04:36:23;;;;;;;9.26;6.06;;;;;;;;;;370605;142;864729;-63
2021/06/30 04:37:24;;;;;;;9.19;6.46;;;;;;;;;;370239;143;857177;-63
2021/06/30 04:38:26;;;;;;;7.69;6.66;;;;;;;;;;369875;144;857135;-64
2021/06/30 04:39:28;;;;;;;6.55;5.85;;;;;;;;;;372329;142;857207;-62
2021/06/30 04:40:31;;;;;;;7.99;5.87;;;;;;;;;;369865;143;857308;-62
2021/06/30 04:41:33;;;;;;;8.15;5.93;;;;;;;;;;368316;144;858673;-64
2021/06/30 04:42:34;;;;;;;5.94;5.33;;;;;;;;;;369825;142;865986;-64
2021/06/30 04:43:36;;;;;;;6.20;5.04;;;;;;;;;;369848;144;859975;-64
2021/06/30 04:44:37;;;;;;;8.36;5.96;;;;;;;;;;371143;143;859898;-64
2021/06/30 04:45:39;;;;;;;7.82;6.05;;;;;;;;;;371119;142;856960;-63
2021/06/30 04:46:40;;;;;;;5.88;5.28;;;;;;;;;;370743;143;857339;-64
2021/06/30 04:47:42;;;;;;;8.26;4.86;;;;;;;;;;373067;143;864709;-64
2021/06/30 04:48:44;;;;;;;8.00;4.93;;;;;;;;;;372191;142;857219;-64
2021/06/30 04:49:45;;;;;;;7.09;4.96;;;;;;;;;;369747;143;864989;-64
2021/06/30 04:50:47;;;;;;;9.82;5.31;;;;;;;;;;372004;143;857114;-64
2021/06/30 04:51:48;;;;;;;7.44;5.51;;;;;;;;;;371485;143;864918;-64
2021/06/30 04:52:50;;;;;;;6.58;4.78;;;;;;;;;;370992;142;857243;-64
2021/06/30 04:53:52;;;;;;;6.16;5.32;;;;;;;;;;369721;143;857279;-63
2021/06/30 04:54:53;;;;;;;6.36;5.28;;;;;;;;;;368121;144;857366;-64
2021/06/30 04:55:55;;;;;;;6.75;4.85;;;;;;;;;;368333;142;866615;-64
2021/06/30 04:56:56;;;;;;;6.98;4.55;;;;;;;;;;370366;143;857415;-64
2021/06/30 04:57:58;;;;;;;7.93;5.25;;;;;;;;;;368601;142;866616;-64
2021/06/30 04:59:00;;;;;;;5.48;4.96;;;;;;;;;;362081;146;858978;-64
2021/06/30 05:00:03;;;;;;;9.31;5.15;;;;;;;;;;362131;146;858293;-65
2021/06/30 05:01:05;;;;;;;6.76;5.07;;;;;;;;;;359120;146;867631;-66
2021/06/30 05:02:06;;;;;;;7.80;5.21;;;;;;;;;;356882;149;858949;-63
2021/06/30 05:03:08;;;;;;;7.07;5.33;;;;;;;;;;362755;146;858948;-66
2021/06/30 05:04:09;;;;;;;8.97;5.28;;;;;;;;;;362989;146;857918;-63
2021/06/30 05:05:12;;;;;;;7.56;4.96;;;;;;;;;;359841;146;857393;-62
2021/06/30 05:06:15;;;;;;;9.81;4.49;;;;;;;;;;349107;152;857336;-64
2021/06/30 05:07:16;;;;;;;4.78;3.99;;;;;;;;;;357393;149;866600;-63
2021/06/30 05:08:18;;;;;;;8.46;3.75;;;;;;;;;;357759;148;865966;-63
2021/06/30 05:09:20;;;;;;;5.76;3.29;;;;;;;;;;361217;146;865815;-63
2021/06/30 05:10:21;;;;;;;5.88;4.03;;;;;;;;;;363992;146;857178;-64
2021/06/30 05:11:23;;;;;;;4.71;3.50;;;;;;;;;;357026;148;857199;-65
2021/06/30 05:12:25;;;;;;;5.94;3.75;;;;;;;;;;360601;148;857162;-64
2021/06/30 05:13:26;;;;;;;4.01;3.56;;;;;;;;;;363717;146;857252;-63
2021/06/30 05:14:28;;;;;;;8.28;3.29;;;;;;;;;;361822;146;857267;-63
2021/06/30 05:15:29;;;;;;;4.60;3.61;;;;;;;;;;355859;147;864759;-61
2021/06/30 05:16:31;;;;;;;6.36;3.61;;;;;;;;;;361766;146;860154;-63
2021/06/30 05:29:22;;;;;;;3.39;2.14;;;;;;;22.19;54.86;99557.78;384523;138;879616;-62
2021/06/30 05:30:24;;;;;;;2.55;2.03;;;;;;;22.23;55.28;99564.56;375702;141;858941;-63
2021/06/30 05:31:26;;;;;;;3.14;2.16;;;;;;;22.39;54.84;99559.17;375152;141;859049;-63
2021/06/30 05:32:28;;;;;;;3.05;2.19;;;;;;;22.52;53.81;99561.92;377228;141;866559;-62
2021/06/30 05:33:30;;;;;;;4.09;2.32;;;;;;;22.60;53.42;99564.91;375729;141;866806;-62
2021/06/30 05:34:32;;;;;;;6.02;2.43;;;;;;;22.68;56.05;99560.93;373531;141;859359;-62
2021/06/30 05:35:34;;;;;;;3.04;2.69;;;;;;;22.74;57.93;99566.64;373507;141;866250;-62
2021/06/30 05:36:36;;;;;;;4.21;3.00;;;;;;;22.83;59.48;99559.09;373983;141;865879;-62
2021/06/30 05:37:38;;;;;;;4.79;2.82;;;;;;;22.89;59.00;99556.05;374942;141;859907;-62
2021/06/30 05:38:40;;;;;;;3.37;2.31;;;;;;;22.94;58.24;99553.95;376098;141;867179;-62
2021/06/30 05:39:42;;;;;;;4.12;2.84;;;;;;;22.95;55.54;99558.29;369642;141;858311;-62
2021/06/30 05:40:44;;;;;;;2.88;2.51;;;;;;;22.97;54.82;99558.17;370301;142;858600;-62
2021/06/30 05:41:46;;;;;;;3.57;2.79;;;;;;;23.01;54.87;99559.66;369130;144;858624;-62
2021/06/30 05:42:48;;;;;;;5.42;3.12;;;;;;;23.04;56.21;99565.59;370334;143;857856;-62
2021/06/30 05:43:50;;;;;;;4.21;3.18;;;;;;;23.09;56.79;99569.73;370148;142;858500;-63
2021/06/30 05:44:52;;;;;;;5.17;3.15;;;;;;;23.10;55.81;99572.25;370022;144;864766;-62
2021/06/30 05:45:53;;;;;;;3.96;2.74;;;;;;;23.10;54.58;99571.42;371259;144;864713;-62
2021/06/30 05:46:55;;;;;;;3.20;2.91;;;;;;;23.10;54.82;99572.25;371810;142;864729;-63
2021/06/30 05:47:57;;;;;;;4.29;3.06;;;;;;;23.13;54.76;99566.77;373378;142;857431;-63
2021/06/30 05:48:59;;;;;;;7.30;2.99;;;;;;;23.12;53.86;99567.71;368399;144;866712;-62
2021/06/30 05:50:01;;;;;;;4.97;3.01;;;;;;;23.12;54.33;99567.71;368278;142;859051;-62
2021/06/30 05:51:02;;;;;;;4.38;3.08;;;;;;;23.10;53.77;99564.33;370168;142;857387;-62
2021/06/30 05:52:05;;;;;;;2.77;2.16;;;;;;;23.06;54.28;99562.84;372652;144;866067;-63
2021/06/30 05:53:07;;;;;;;3.16;2.50;;;;;;;23.05;53.59;99569.94;369299;142;857287;-62
2021/06/30 05:54:10;;;;;;;3.56;2.71;;;;;;;23.04;52.66;99567.37;371546;142;856469;-63
2021/06/30 05:55:12;;;;;;;5.60;3.00;;;;;;;23.06;53.29;99570.77;364487;147;864669;-63
2021/06/30 05:56:15;;;;;;;3.11;2.54;;;;;;;23.02;53.44;99562.22;369570;144;858936;-63
2021/06/30 05:57:17;;;;;;;2.99;2.63;;;;;;;22.89;54.34;99566.61;370548;142;858750;-62
2021/06/30 05:58:19;;;;;;;3.10;2.35;;;;;;;22.90;54.96;99563.86;370339;143;859479;-63
2021/06/30 05:59:21;;;;;;;2.84;2.39;;;;;;;22.91;54.79;99562.91;363599;147;865003;-63
2021/06/30 06:00:23;;;;;;;4.87;2.97;;;;;;;;;;365151;144;857411;-62
2021/06/30 06:01:25;;;;;;;4.71;3.16;;;;;;;;;;372567;144;857775;-63
2021/06/30 06:02:26;;;;;;;2.59;2.38;;;;;;;;;;372275;144;859017;-63
2021/06/30 06:03:28;;;;;;;3.01;2.36;;;;;;;;;;361293;144;858597;-63
2021/06/30 06:04:30;;;;;;;4.38;2.72;;;;;;;;;;368890;143;857921;-63
2021/06/30 06:05:31;;;;;;;4.49;2.33;;;;;;;;;;372670;144;857700;-61
2021/06/30 06:06:33;;;;;;;2.44;2.07;;;;;;;;;;370550;143;856439;-62
2021/06/30 06:07:35;;;;;;;4.27;2.60;;;;;;;;;;374192;142;863508;-62
2021/06/30 06:08:38;;;;;;;3.13;2.11;;;;;;;;;;372261;142;866688;-63